createdAt,value
2023-05-06T00:01:24.221Z,99449.03
2023-05-06T00:03:51.668Z,99434.50
2023-05-06T00:06:18.178Z,99427.41
2023-05-06T00:08:45.853Z,99431.97
2023-05-06T00:11:13.572Z,99425.59
2023-05-06T00:13:39.974Z,99428.56
2023-05-06T00:16:06.544Z,99421.63
2023-05-06T00:18:33.026Z,99419.69
2023-05-06T00:20:59.514Z,99418.16
2023-05-06T00:23:25.899Z,99424.63
2023-05-06T00:25:54.040Z,99424.34
2023-05-06T00:28:20.408Z,99418.41
2023-05-06T00:30:46.800Z,99419.66
2023-05-06T00:33:13.184Z,99412.59
2023-05-06T00:35:39.608Z,99425.31
2023-05-06T00:38:09.247Z,99425.44
2023-05-06T00:40:36.446Z,99412.16
2023-05-06T00:43:03.463Z,99409.63
2023-05-06T00:45:30.575Z,99400.31
2023-05-06T00:47:57.952Z,99407.78
2023-05-06T00:50:24.763Z,99398.50
2023-05-06T00:52:51.704Z,99403.97
2023-05-06T00:55:18.215Z,99394.66
2023-05-06T00:57:44.720Z,99403.41
2023-05-06T01:00:11.659Z,99395.63
2023-05-06T01:02:46.528Z,99389.00
2023-05-06T01:05:16.305Z,99393.94
2023-05-06T01:08:09.978Z,99394.03
2023-05-06T01:10:49.925Z,99392.63
2023-05-06T01:13:42.836Z,99391.34
2023-05-06T01:16:12.616Z,99391.75
2023-05-06T01:18:39.885Z,99380.72
2023-05-06T01:21:07.737Z,99391.72
2023-05-06T01:24:06.595Z,99390.44
2023-05-06T01:26:33.040Z,99391.28
2023-05-06T01:29:01.857Z,99378.72
2023-05-06T01:31:45.476Z,99387.75
2023-05-06T01:34:20.927Z,99388.72
2023-05-06T01:37:05.561Z,99399.44
2023-05-06T01:39:33.080Z,99394.78
2023-05-06T01:42:01.971Z,99394.66
2023-05-06T01:44:33.757Z,99400.13
2023-05-06T01:47:01.105Z,99397.84
2023-05-06T01:52:18.612Z,99398.53
2023-05-06T01:54:45.398Z,99400.66
2023-05-06T01:57:18.980Z,99403.06
2023-05-06T01:59:45.537Z,99400.22
2023-05-06T02:02:12.114Z,99402.44
2023-05-06T02:04:38.963Z,99405.53
2023-05-06T02:07:05.728Z,99408.84
2023-05-06T02:09:32.161Z,99403.50
2023-05-06T02:11:58.610Z,99400.94
2023-05-06T02:14:25.029Z,99403.22
2023-05-06T02:16:51.588Z,99409.97
2023-05-06T02:19:17.971Z,99400.94
2023-05-06T02:21:44.588Z,99406.72
2023-05-06T02:24:11.047Z,99408.94
2023-05-06T02:26:37.539Z,99410.53
2023-05-06T02:29:04.024Z,99406.31
2023-05-06T02:31:31.942Z,99406.44
2023-05-06T02:33:58.369Z,99409.81
2023-05-06T02:36:24.879Z,99409.81
2023-05-06T02:38:51.292Z,99409.09
2023-05-06T02:41:17.739Z,99413.97
2023-05-06T02:43:44.188Z,99406.19
2023-05-06T02:46:11.746Z,99406.25
2023-05-06T02:48:38.141Z,99413.81
2023-05-06T02:51:05.598Z,99415.78
2023-05-06T02:53:32.314Z,99411.97
2023-05-06T02:55:58.971Z,99413.56
2023-05-06T02:58:26.144Z,99416.97
2023-05-06T03:00:52.702Z,99409.91
2023-05-06T03:03:19.104Z,99408.94
2023-05-06T03:05:45.717Z,99406.97
2023-05-06T03:08:12.113Z,99407.69
2023-05-06T03:10:38.786Z,99399.53
2023-05-06T03:13:05.612Z,99409.31
2023-05-06T03:15:32.176Z,99405.94
2023-05-06T03:17:59.222Z,99413.38
2023-05-06T03:20:25.710Z,99409.13
2023-05-06T03:22:52.641Z,99412.56
2023-05-06T03:25:19.020Z,99399.44
2023-05-06T03:27:45.586Z,99406.75
2023-05-06T03:30:12.456Z,99400.69
2023-05-06T03:32:39.098Z,99405.06
2023-05-06T03:35:07.361Z,99398.03
2023-05-06T03:37:34.501Z,99398.38
2023-05-06T03:40:03.580Z,99407.09
2023-05-06T03:42:31.121Z,99400.31
2023-05-06T03:44:57.504Z,99399.31
2023-05-06T03:47:24.272Z,99402.88
2023-05-06T03:49:51.130Z,99400.56
2023-05-06T03:52:18.080Z,99408.97
2023-05-06T03:54:44.684Z,99403.63
2023-05-06T03:57:11.067Z,99399.97
2023-05-06T03:59:37.950Z,99409.69
2023-05-06T04:02:05.572Z,99405.91
2023-05-06T04:04:31.975Z,99408.00
2023-05-06T04:06:58.590Z,99409.56
2023-05-06T04:09:25.641Z,99394.97
2023-05-06T04:11:52.152Z,99407.22
2023-05-06T04:14:19.125Z,99399.44
2023-05-06T04:16:45.644Z,99411.13
2023-05-06T04:19:12.707Z,99400.31
2023-05-06T04:21:39.523Z,99406.75
2023-05-06T04:24:06.400Z,99408.97
2023-05-06T04:26:33.343Z,99412.34
2023-05-06T04:28:59.931Z,99405.31
2023-05-06T04:31:29.605Z,99411.50
2023-05-06T04:33:56.069Z,99417.97
2023-05-06T04:36:23.033Z,99410.81
2023-05-06T04:38:49.424Z,99415.16
2023-05-06T04:41:15.913Z,99426.19
2023-05-06T04:43:42.384Z,99425.69
2023-05-06T04:46:08.896Z,99418.13
2023-05-06T04:48:35.524Z,99420.69
2023-05-06T04:51:04.217Z,99416.28
2023-05-06T04:53:31.741Z,99423.09
2023-05-06T04:55:58.152Z,99419.28
2023-05-06T04:58:24.639Z,99424.44
2023-05-06T05:00:51.661Z,99413.91
2023-05-06T05:03:18.201Z,99398.66
2023-05-06T05:05:45.061Z,99369.41
2023-05-06T05:08:13.256Z,99347.59
2023-05-06T05:10:45.831Z,99330.78
2023-05-06T05:13:12.930Z,99321.91
2023-05-06T05:15:40.065Z,99316.13
2023-05-06T05:18:06.732Z,99320.59
2023-05-06T05:20:33.617Z,99312.03
2023-05-06T05:23:00.491Z,99320.06
2023-05-06T05:25:27.330Z,99322.44
2023-05-06T05:27:53.705Z,99323.03
2023-05-06T05:30:20.660Z,99324.06
2023-05-06T05:32:47.337Z,99319.44
2023-05-06T05:35:13.769Z,99325.75
2023-05-06T05:37:40.345Z,99333.47
2023-05-06T05:40:07.212Z,99338.97
2023-05-06T05:42:34.097Z,99342.97
2023-05-06T05:45:00.615Z,99332.09
2023-05-06T05:47:27.245Z,99342.94
2023-05-06T05:49:54.250Z,99336.59
2023-05-06T05:52:20.889Z,99349.19
2023-05-06T05:54:47.697Z,99355.31
2023-05-06T05:57:14.263Z,99349.84
2023-05-06T05:59:41.149Z,99354.91
2023-05-06T06:02:07.547Z,99370.31
2023-05-06T06:04:35.160Z,99367.81
2023-05-06T06:07:02.156Z,99368.41
2023-05-06T06:09:28.770Z,99374.03
2023-05-06T06:11:55.438Z,99379.06
2023-05-06T06:14:21.902Z,99375.84
2023-05-06T06:16:48.635Z,99387.50
2023-05-06T06:19:15.794Z,99388.72
2023-05-06T06:21:42.418Z,99385.34
2023-05-06T06:24:09.069Z,99397.09
2023-05-06T06:26:35.877Z,99407.34
2023-05-06T06:29:02.304Z,99412.72
2023-05-06T06:31:29.418Z,99417.56
2023-05-06T06:33:56.035Z,99418.44
2023-05-06T06:36:22.435Z,99422.34
2023-05-06T06:38:49.028Z,99416.53
2023-05-06T06:41:15.420Z,99421.31
2023-05-06T06:43:42.188Z,99411.22
2023-05-06T06:46:08.801Z,99411.50
2023-05-06T06:48:35.839Z,99411.63
2023-05-06T06:51:02.694Z,99404.81
2023-05-06T06:53:29.113Z,99413.09
2023-05-06T06:55:55.707Z,99419.75
2023-05-06T06:58:22.182Z,99422.44
2023-05-06T07:00:48.608Z,99416.59
2023-05-06T07:03:19.445Z,99419.81
2023-05-06T07:05:46.576Z,99416.47
2023-05-06T07:08:12.971Z,99413.81
2023-05-06T07:10:39.514Z,99414.19
2023-05-06T07:13:05.912Z,99411.81
2023-05-06T07:15:32.333Z,99411.66
2023-05-06T07:17:58.933Z,99412.16
2023-05-06T07:20:25.645Z,99416.41
2023-05-06T07:22:52.777Z,99417.41
2023-05-06T07:25:19.347Z,99424.69
2023-05-06T07:27:45.875Z,99412.69
2023-05-06T07:30:12.614Z,99410.16
2023-05-06T07:32:40.955Z,99412.81
2023-05-06T07:35:08.710Z,99414.38
2023-05-06T07:37:35.583Z,99408.06
2023-05-06T07:40:03.253Z,99410.94
2023-05-06T07:42:29.684Z,99410.63
2023-05-06T07:44:57.205Z,99411.66
2023-05-06T07:47:31.747Z,99419.06
2023-05-06T07:50:00.364Z,99416.31
2023-05-06T07:52:27.561Z,99419.50
2023-05-06T07:54:54.203Z,99428.44
2023-05-06T07:57:20.899Z,99421.94
2023-05-06T07:59:48.609Z,99414.00
2023-05-06T08:02:15.392Z,99415.72
2023-05-06T08:04:42.790Z,99415.56
2023-05-06T08:07:10.744Z,99415.22
2023-05-06T08:09:37.740Z,99418.91
2023-05-06T08:12:04.426Z,99414.13
2023-05-06T08:14:31.268Z,99410.03
2023-05-06T08:16:57.675Z,99414.00
2023-05-06T08:19:24.459Z,99408.50
2023-05-06T08:21:51.432Z,99401.47
2023-05-06T08:24:17.963Z,99407.16
2023-05-06T08:26:44.361Z,99392.25
2023-05-06T08:29:10.841Z,99394.22
2023-05-06T08:31:37.268Z,99390.94
2023-05-06T08:34:03.893Z,99392.16
2023-05-06T08:36:30.934Z,99391.13
2023-05-06T08:38:57.413Z,99386.72
2023-05-06T08:41:26.251Z,99380.81
2023-05-06T08:43:55.356Z,99390.25
2023-05-06T08:46:22.804Z,99380.16
2023-05-06T08:48:49.657Z,99388.97
2023-05-06T08:51:16.774Z,99390.63
2023-05-06T08:53:48.424Z,99384.81
2023-05-06T08:56:16.985Z,99385.47
2023-05-06T08:58:46.488Z,99381.91
2023-05-06T09:01:14.720Z,99382.56
2023-05-06T09:03:41.397Z,99382.16
2023-05-06T09:06:08.035Z,99375.22
2023-05-06T09:08:34.677Z,99371.97
2023-05-06T09:11:01.114Z,99369.63
2023-05-06T09:13:27.728Z,99363.84
2023-05-06T09:15:55.226Z,99364.22
2023-05-06T09:18:22.402Z,99366.44
2023-05-06T09:20:50.494Z,99360.59
2023-05-06T09:23:18.002Z,99359.88
2023-05-06T09:25:46.518Z,99358.91
2023-05-06T09:28:13.989Z,99364.94
2023-05-06T09:30:41.750Z,99355.03
2023-05-06T09:33:09.561Z,99354.38
2023-05-06T09:35:41.267Z,99355.03
2023-05-06T09:38:08.328Z,99361.75
2023-05-06T09:40:39.140Z,99354.13
2023-05-06T09:43:06.239Z,99353.81
2023-05-06T09:45:33.396Z,99342.78
2023-05-06T09:48:01.066Z,99343.16
2023-05-06T09:50:28.069Z,99340.09
2023-05-06T09:52:56.071Z,99335.25
2023-05-06T09:55:26.457Z,99342.66
2023-05-06T09:57:53.321Z,99326.53
2023-05-06T10:00:26.889Z,99330.38
2023-05-06T10:02:54.991Z,99327.41
2023-05-06T10:05:22.805Z,99326.81
2023-05-06T10:07:52.492Z,99321.34
2023-05-06T10:10:19.000Z,99314.84
2023-05-06T10:12:46.344Z,99312.56
2023-05-06T10:15:13.033Z,99299.34
2023-05-06T10:17:41.598Z,99302.91
2023-05-06T10:20:09.538Z,99299.34
2023-05-06T10:23:03.828Z,99303.28
2023-05-06T10:25:36.385Z,99298.81
2023-05-06T10:28:17.689Z,99304.31
2023-05-06T10:30:58.028Z,99280.41
2023-05-06T10:33:26.464Z,99285.47
2023-05-06T10:36:03.228Z,99288.59
2023-05-06T10:38:49.263Z,99286.63
2023-05-06T10:41:16.820Z,99288.44
2023-05-06T10:43:44.060Z,99278.97
2023-05-06T10:46:15.629Z,99276.50
2023-05-06T10:49:08.378Z,99281.28
2023-05-06T10:51:36.283Z,99277.72
2023-05-06T10:54:23.441Z,99269.59
2023-05-06T10:56:49.806Z,99279.13
2023-05-06T10:59:22.348Z,99275.00
2023-05-06T11:02:08.181Z,99277.31
2023-05-06T11:04:34.760Z,99276.69
2023-05-06T11:07:15.526Z,99276.13
2023-05-06T11:10:02.222Z,99262.09
2023-05-06T11:12:47.481Z,99271.97
2023-05-06T11:15:26.870Z,99257.94
2023-05-06T11:17:57.417Z,99250.13
2023-05-06T11:20:26.572Z,99247.66
2023-05-06T11:22:54.213Z,99243.56
2023-05-06T11:28:25.377Z,99258.53
2023-05-06T11:30:55.376Z,99240.34
2023-05-06T11:33:23.999Z,99241.41
2023-05-06T11:35:50.716Z,99247.13
2023-05-06T11:38:17.142Z,99244.41
2023-05-06T11:40:44.218Z,99240.88
2023-05-06T11:43:15.098Z,99239.63
2023-05-06T11:45:47.080Z,99243.00
2023-05-06T11:48:14.874Z,99242.28
2023-05-06T11:50:48.942Z,99240.56
2023-05-06T11:53:21.047Z,99242.84
2023-05-06T11:55:49.564Z,99240.66
2023-05-06T11:58:18.901Z,99240.31
2023-05-06T12:00:58.744Z,99235.81
2023-05-06T12:03:27.411Z,99232.06
2023-05-06T12:05:55.643Z,99234.38
2023-05-06T12:08:33.106Z,99237.06
2023-05-06T12:11:04.637Z,99236.03
2023-05-06T12:13:31.317Z,99237.97
2023-05-06T12:15:59.599Z,99236.38
2023-05-06T12:18:26.588Z,99241.81
2023-05-06T12:20:54.644Z,99231.78
2023-05-06T12:23:24.789Z,99221.53
2023-05-06T12:26:06.627Z,99223.78
2023-05-06T12:28:36.644Z,99221.13
2023-05-06T12:31:20.154Z,99228.91
2023-05-06T12:33:49.668Z,99226.31
2023-05-06T12:36:18.033Z,99220.44
2023-05-06T12:38:56.174Z,99230.47
2023-05-06T12:41:42.989Z,99232.22
2023-05-06T12:44:34.909Z,99233.13
2023-05-06T12:47:04.775Z,99232.03
2023-05-06T12:50:04.272Z,99230.56
2023-05-06T12:52:30.857Z,99232.59
2023-05-06T12:54:57.683Z,99223.25
2023-05-06T12:57:24.215Z,99223.75
2023-05-06T12:59:50.666Z,99231.13
2023-05-06T13:02:18.897Z,99233.50
2023-05-06T13:04:46.694Z,99230.31
2023-05-06T13:07:13.307Z,99231.06
2023-05-06T13:09:39.728Z,99228.53
2023-05-06T13:12:07.540Z,99229.59
2023-05-06T13:14:34.082Z,99226.75
2023-05-06T13:17:01.480Z,99222.25
2023-05-06T13:19:32.977Z,99215.16
2023-05-06T13:22:00.402Z,99215.94
2023-05-06T13:24:27.409Z,99225.38
2023-05-06T13:26:53.897Z,99229.00
2023-05-06T13:29:20.631Z,99226.22
2023-05-06T13:31:47.536Z,99224.00
2023-05-06T13:34:13.956Z,99229.38
2023-05-06T13:36:40.373Z,99231.75
2023-05-06T13:39:06.831Z,99225.13
2023-05-06T13:41:33.201Z,99225.72
2023-05-06T13:44:00.020Z,99220.25
2023-05-06T13:46:29.454Z,99219.91
2023-05-06T13:48:55.953Z,99213.69
2023-05-06T13:51:22.522Z,99210.75
2023-05-06T13:53:49.149Z,99206.13
2023-05-06T13:56:15.872Z,99204.94
2023-05-06T13:58:42.260Z,99209.91
2023-05-06T14:01:08.935Z,99202.16
2023-05-06T14:03:35.340Z,99202.16
2023-05-06T14:06:02.046Z,99210.25
2023-05-06T14:08:28.537Z,99203.56
2023-05-06T14:10:55.378Z,99206.84
2023-05-06T14:13:22.117Z,99204.94
2023-05-06T14:15:48.601Z,99200.38
2023-05-06T14:18:16.024Z,99215.00
2023-05-06T14:20:42.479Z,99210.59
2023-05-06T14:23:09.421Z,99212.50
2023-05-06T14:25:35.933Z,99209.16
2023-05-06T14:28:02.809Z,99220.16
2023-05-06T14:30:29.902Z,99212.63
2023-05-06T14:32:57.650Z,99214.50
2023-05-06T14:35:24.360Z,99213.94
2023-05-06T14:37:51.072Z,99212.03
2023-05-06T14:40:17.873Z,99214.22
2023-05-06T14:42:45.809Z,99207.97
2023-05-06T14:45:13.871Z,99223.16
2023-05-06T14:47:40.633Z,99228.81
2023-05-06T14:50:09.310Z,99248.16
2023-05-06T14:52:36.643Z,99256.75
2023-05-06T14:55:04.316Z,99263.56
2023-05-06T14:57:30.714Z,99278.00
2023-05-06T14:59:59.009Z,99293.63
2023-05-06T15:02:25.914Z,99289.88
2023-05-06T15:04:52.334Z,99294.38
2023-05-06T15:07:18.920Z,99287.06
2023-05-06T15:09:45.477Z,99289.34
2023-05-06T15:12:12.319Z,99289.69
2023-05-06T15:14:39.849Z,99295.75
2023-05-06T15:17:06.571Z,99302.22
2023-05-06T15:19:33.790Z,99292.84
2023-05-06T15:22:00.748Z,99292.78
2023-05-06T15:24:27.180Z,99298.28
2023-05-06T15:26:54.432Z,99294.09
2023-05-06T15:29:21.200Z,99302.63
2023-05-06T15:31:47.901Z,99316.38
2023-05-06T15:34:14.448Z,99314.50
2023-05-06T15:36:42.026Z,99311.03
2023-05-06T15:39:08.658Z,99311.03
2023-05-06T15:41:39.011Z,99313.22
2023-05-06T15:44:06.121Z,99316.03
2023-05-06T15:46:33.070Z,99321.53
2023-05-06T15:49:20.936Z,99318.28
2023-05-06T15:51:46.389Z,99321.53
2023-05-06T15:54:13.375Z,99331.38
2023-05-06T15:56:41.547Z,99333.81
2023-05-06T15:59:08.800Z,99326.53
2023-05-06T16:01:54.036Z,99334.28
2023-05-06T16:04:22.413Z,99336.31
2023-05-06T16:06:49.649Z,99341.31
2023-05-06T16:09:17.181Z,99348.94
2023-05-06T16:11:43.620Z,99358.00
2023-05-06T16:14:10.269Z,99355.34
2023-05-06T16:16:36.774Z,99353.34
2023-05-06T16:19:03.843Z,99346.81
2023-05-06T16:21:30.210Z,99354.44
2023-05-06T16:23:56.680Z,99353.03
2023-05-06T16:26:23.545Z,99353.19
2023-05-06T16:28:49.972Z,99353.63
2023-05-06T16:31:17.054Z,99348.31
2023-05-06T16:33:43.570Z,99335.50
2023-05-06T16:36:10.339Z,99333.63
2023-05-06T16:38:36.941Z,99326.91
2023-05-06T16:41:03.418Z,99324.16
2023-05-06T16:43:30.217Z,99316.03
2023-05-06T16:45:56.620Z,99320.38
2023-05-06T16:48:23.231Z,99320.16
2023-05-06T16:50:49.872Z,99321.69
2023-05-06T16:53:17.268Z,99320.75
2023-05-06T16:55:49.109Z,99328.03
2023-05-06T16:58:15.961Z,99321.06
2023-05-06T17:00:42.799Z,99324.31
2023-05-06T17:03:09.509Z,99318.44
2023-05-06T17:05:36.951Z,99317.03
2023-05-06T17:08:03.951Z,99312.03
2023-05-06T17:10:30.390Z,99316.13
2023-05-06T17:12:57.192Z,99319.34
2023-05-06T17:15:24.776Z,99324.88
2023-05-06T17:17:51.738Z,99326.16
2023-05-06T17:20:19.869Z,99323.09
2023-05-06T17:22:47.169Z,99324.09
2023-05-06T17:25:13.898Z,99321.97
2023-05-06T17:27:41.312Z,99314.50
2023-05-06T17:30:11.865Z,99316.03
2023-05-06T17:32:39.027Z,99312.31
2023-05-06T17:35:06.302Z,99313.38
2023-05-06T17:37:33.870Z,99311.66
2023-05-06T17:40:00.585Z,99308.75
2023-05-06T17:42:29.776Z,99321.44
2023-05-06T17:44:56.877Z,99319.25
2023-05-06T17:47:23.385Z,99322.50
2023-05-06T17:49:53.673Z,99315.63
2023-05-06T17:52:20.688Z,99319.72
2023-05-06T17:55:01.455Z,99317.69
2023-05-06T17:57:37.076Z,99317.31
2023-05-06T18:00:04.096Z,99312.75
2023-05-06T18:02:30.664Z,99310.56
2023-05-06T18:04:57.667Z,99298.91
2023-05-06T18:07:24.078Z,99295.53
2023-05-06T18:09:52.040Z,99302.44
2023-05-06T18:12:19.482Z,99299.75
2023-05-06T18:14:46.080Z,99298.75
2023-05-06T18:17:12.471Z,99304.63
2023-05-06T18:19:39.510Z,99308.69
2023-05-06T18:22:05.901Z,99309.25
2023-05-06T18:24:32.564Z,99310.59
2023-05-06T18:26:58.964Z,99304.03
2023-05-06T18:29:27.936Z,99309.50
2023-05-06T18:31:54.337Z,99309.31
2023-05-06T18:34:20.941Z,99314.22
2023-05-06T18:36:47.369Z,99314.56
2023-05-06T18:39:14.127Z,99314.63
2023-05-06T18:41:41.271Z,99309.22
2023-05-06T18:44:07.683Z,99309.53
2023-05-06T18:46:34.438Z,99316.63
2023-05-06T18:49:00.964Z,99321.19
2023-05-06T18:51:28.056Z,99321.53
2023-05-06T18:53:54.497Z,99320.56
2023-05-06T18:56:23.355Z,99319.72
2023-05-06T18:58:49.862Z,99318.38
2023-05-06T19:01:17.016Z,99322.28
2023-05-06T19:03:43.604Z,99319.09
2023-05-06T19:06:11.935Z,99319.44
2023-05-06T19:08:38.763Z,99327.22
2023-05-06T19:11:05.880Z,99321.50
2023-05-06T19:13:32.370Z,99330.25
2023-05-06T19:16:00.326Z,99330.25
2023-05-06T19:18:26.886Z,99323.19
2023-05-06T19:20:55.251Z,99328.59
2023-05-06T19:23:21.794Z,99332.47
2023-05-06T19:25:48.256Z,99331.78
2023-05-06T19:28:14.766Z,99328.78
2023-05-06T19:30:41.594Z,99334.19
2023-05-06T19:33:08.205Z,99337.72
2023-05-06T19:35:38.032Z,99334.00
2023-05-06T19:38:06.063Z,99332.97
2023-05-06T19:40:34.506Z,99338.22
2023-05-06T19:43:04.196Z,99345.13
2023-05-06T19:45:31.418Z,99340.25
2023-05-06T19:47:58.768Z,99339.59
2023-05-06T19:50:27.410Z,99342.13
2023-05-06T19:52:53.988Z,99336.19
2023-05-06T19:55:20.674Z,99337.72
2023-05-06T19:57:47.535Z,99337.88
2023-05-06T20:00:18.028Z,99334.19
2023-05-06T20:02:44.938Z,99330.78
2023-05-06T20:05:11.977Z,99332.31
2023-05-06T20:07:39.066Z,99334.34
2023-05-06T20:10:06.201Z,99337.06
2023-05-06T20:12:33.382Z,99336.22
2023-05-06T20:14:59.817Z,99335.38
2023-05-06T20:17:26.749Z,99344.47
2023-05-06T20:19:58.250Z,99327.94
2023-05-06T20:22:25.218Z,99331.63
2023-05-06T20:24:52.992Z,99339.91
2023-05-06T20:27:22.814Z,99331.47
2023-05-06T20:29:51.523Z,99335.84
2023-05-06T20:32:18.013Z,99337.03
2023-05-06T20:34:45.662Z,99332.97
2023-05-06T20:37:12.054Z,99335.50
2023-05-06T20:39:38.453Z,99340.06
2023-05-06T20:42:05.162Z,99336.03
2023-05-06T20:44:31.720Z,99325.88
2023-05-06T20:46:58.110Z,99332.97
2023-05-06T20:49:24.544Z,99323.84
2023-05-06T20:51:52.131Z,99326.72
2023-05-06T20:54:18.548Z,99323.16
2023-05-06T20:56:45.298Z,99323.16
2023-05-06T20:59:11.766Z,99332.59
2023-05-06T21:01:38.430Z,99335.44
2023-05-06T21:04:06.197Z,99338.47
2023-05-06T21:06:32.673Z,99335.78
2023-05-06T21:08:59.606Z,99338.47
2023-05-06T21:11:28.658Z,99342.69
2023-05-06T21:13:55.534Z,99331.41
2023-05-06T21:16:22.240Z,99341.69
2023-05-06T21:18:48.851Z,99342.50
2023-05-06T21:21:15.753Z,99347.59
2023-05-06T21:23:42.157Z,99345.06
2023-05-06T21:26:08.833Z,99340.13
2023-05-06T21:28:35.201Z,99342.00
2023-05-06T21:31:03.465Z,99344.69
2023-05-06T21:33:30.572Z,99337.59
2023-05-06T21:35:57.192Z,99326.13
2023-05-06T21:38:24.577Z,99330.84
2023-05-06T21:40:51.033Z,99336.25
2023-05-06T21:43:17.989Z,99333.56
2023-05-06T21:45:44.663Z,99341.47
2023-05-06T21:48:11.627Z,99334.56
2023-05-06T21:50:38.581Z,99332.88
2023-05-06T21:53:05.320Z,99339.78
2023-05-06T21:55:32.442Z,99341.47
2023-05-06T21:57:58.860Z,99344.00
2023-05-06T22:00:25.762Z,99344.31
2023-05-06T22:02:53.132Z,99344.97
2023-05-06T22:05:20.259Z,99340.25
2023-05-06T22:07:46.710Z,99331.94
2023-05-06T22:10:13.651Z,99339.19
2023-05-06T22:12:40.191Z,99333.09
2023-05-06T22:15:09.182Z,99336.47
2023-05-06T22:17:36.537Z,99333.44
2023-05-06T22:20:04.312Z,99330.38
2023-05-06T22:22:31.258Z,99332.88
2023-05-06T22:24:57.672Z,99328.28
2023-05-06T22:27:24.550Z,99328.13
2023-05-06T22:29:50.933Z,99327.75
2023-05-06T22:32:17.940Z,99331.28
2023-05-06T22:34:44.728Z,99330.91
2023-05-06T22:37:11.271Z,99331.22
2023-05-06T22:39:38.017Z,99331.16
2023-05-06T22:42:04.863Z,99336.50
2023-05-06T22:44:31.672Z,99336.84
2023-05-06T22:46:58.060Z,99327.53
2023-05-06T22:49:28.783Z,99330.22
2023-05-06T22:51:56.238Z,99335.09
2023-05-06T22:54:24.358Z,99340.41
2023-05-06T22:56:51.149Z,99334.78
2023-05-06T22:59:17.709Z,99334.41
2023-05-06T23:01:44.173Z,99329.53
2023-05-06T23:04:11.101Z,99336.72
2023-05-06T23:06:40.151Z,99338.28
2023-05-06T23:09:07.686Z,99339.44
2023-05-06T23:11:34.816Z,99332.59
2023-05-06T23:14:01.853Z,99334.78
2023-05-06T23:16:29.457Z,99344.50
2023-05-06T23:18:59.028Z,99339.69
2023-05-06T23:21:26.831Z,99342.09
2023-05-06T23:23:53.627Z,99337.13
2023-05-06T23:26:20.673Z,99334.50
2023-05-06T23:28:47.447Z,99334.97
2023-05-06T23:31:15.170Z,99332.28
2023-05-06T23:33:41.843Z,99334.34
2023-05-06T23:36:08.586Z,99338.38
2023-05-06T23:38:35.629Z,99339.44
2023-05-06T23:41:02.178Z,99336.47
2023-05-06T23:43:28.660Z,99332.38
2023-05-06T23:45:55.747Z,99343.00
2023-05-06T23:48:22.144Z,99349.78
2023-05-06T23:50:48.987Z,99343.88
2023-05-06T23:53:15.562Z,99330.03
2023-05-06T23:55:42.813Z,99340.50
2023-05-06T23:58:09.836Z,99335.94
